Time;durP1;ratioP1;P1;durP2;ratioP2;P2;SDS_P1;SDS_P2;PMS_P1;PMS_P2;Temp;Humidity;BMP_temperature;BMP_pressure;BME280_temperature;BME280_humidity;BME280_pressure;Samples;Min_cycle;Max_cycle;Signal;HPM_P1;HPM_P2
2022/12/04 00:01:47;;;;;;;55.97;22.70;;;;;;;1.99;80.48;101735.56;4995824;28;20357;-59
2022/12/04 00:04:12;;;;;;;57.42;22.98;;;;;;;1.99;80.70;101729.47;5013540;28;20064;-60
2022/12/04 00:06:38;;;;;;;54.70;22.42;;;;;;;1.96;80.32;101726.66;5013441;28;20468;-59
2022/12/04 00:09:04;;;;;;;51.67;22.50;;;;;;;1.90;80.42;101723.72;5013399;28;20034;-59
2022/12/04 00:11:31;;;;;;;55.08;22.70;;;;;;;1.88;80.44;101725.31;5013656;28;20455;-59
2022/12/04 00:13:57;;;;;;;53.28;21.10;;;;;;;1.92;81.01;101722.06;5013541;28;20056;-59
2022/12/04 00:16:25;;;;;;;55.33;22.75;;;;;;;1.87;80.66;101714.00;5013006;28;20479;-59
2022/12/04 00:18:51;;;;;;;54.15;22.15;;;;;;;1.85;80.81;101717.34;5013332;28;20034;-59
2022/12/04 00:21:18;;;;;;;53.15;22.75;;;;;;;1.80;81.35;101713.53;5013302;28;20037;-59
2022/12/04 00:23:44;;;;;;;56.85;23.00;;;;;;;1.82;81.20;101717.13;5013444;28;20041;-59
2022/12/04 00:26:19;;;;;;;57.92;22.52;;;;;;;1.82;81.67;101717.13;5013233;28;20117;-59
2022/12/04 00:28:46;;;;;;;60.92;24.27;;;;;;;1.79;81.10;101704.81;5013328;28;20025;-60
2022/12/04 00:31:14;;;;;;;56.92;22.33;;;;;;;1.79;81.37;101710.03;5013080;28;20479;-59
2022/12/04 00:33:40;;;;;;;57.97;23.90;;;;;;;1.80;81.53;101716.13;5013184;28;20104;-59
2022/12/04 00:36:08;;;;;;;52.67;21.98;;;;;;;1.78;81.50;101710.84;5013059;28;20104;-59
2022/12/04 00:38:35;;;;;;;52.67;23.00;;;;;;;1.81;81.08;101717.94;5013137;28;20053;-59
2022/12/04 00:41:01;;;;;;;54.25;23.30;;;;;;;1.83;81.40;101717.22;5013036;28;20578;-59
2022/12/04 00:43:27;;;;;;;54.00;23.42;;;;;;;1.86;80.95;101711.31;5013066;28;20030;-59
2022/12/04 00:45:53;;;;;;;56.08;22.65;;;;;;;1.89;81.17;101709.78;5012695;28;20049;-59
2022/12/04 00:48:18;;;;;;;50.83;22.00;;;;;;;1.89;80.53;101708.88;5013386;28;20014;-59
2022/12/04 00:50:44;;;;;;;51.35;21.85;;;;;;;1.82;80.94;101706.72;5012956;28;20022;-59
2022/12/04 00:53:10;;;;;;;54.53;24.50;;;;;;;1.78;80.88;101704.72;5015079;28;20081;-59
2022/12/04 00:55:42;;;;;;;55.90;23.20;;;;;;;1.71;81.21;101699.16;5016984;28;20173;-59
2022/12/04 00:58:08;;;;;;;58.40;23.15;;;;;;;1.73;81.51;101700.13;5017017;28;20025;-59
2022/12/04 01:00:35;;;;;;;50.25;21.83;;;;;;;1.78;81.54;101715.16;5016875;28;20030;-59
2022/12/04 01:03:01;;;;;;;55.92;24.05;;;;;;;1.74;81.08;101708.84;5016808;28;20030;-59
2022/12/04 01:05:26;;;;;;;58.22;23.38;;;;;;;1.73;81.20;101701.84;5016977;28;20037;-59
2022/12/04 01:07:53;;;;;;;52.95;22.30;;;;;;;1.74;81.34;101711.47;5016744;28;20026;-59
2022/12/04 01:10:18;;;;;;;58.13;23.63;;;;;;;1.75;81.66;101713.25;5016617;28;20033;-60
2022/12/04 01:12:44;;;;;;;59.17;24.63;;;;;;;1.74;81.31;101714.97;5016700;28;20022;-58
2022/12/04 01:15:10;;;;;;;53.22;22.77;;;;;;;1.79;81.83;101711.72;5016438;28;20065;-59
2022/12/04 01:17:36;;;;;;;60.60;24.80;;;;;;;1.80;81.40;101717.06;4998850;28;20026;-58
2022/12/04 01:20:02;;;;;;;57.85;22.92;;;;;;;1.80;81.27;101719.66;5016444;28;20085;-59
2022/12/04 01:22:28;;;;;;;50.47;22.02;;;;;;;1.84;81.52;101720.72;5016356;28;20028;-59
2022/12/04 01:24:56;;;;;;;53.70;22.60;;;;;;;1.80;81.31;101713.53;5016467;28;20022;-59
2022/12/04 01:27:22;;;;;;;58.53;22.77;;;;;;;1.89;81.40;101717.59;5016316;28;20113;-60
2022/12/04 01:29:47;;;;;;;53.00;22.80;;;;;;;1.87;80.61;101721.81;4998980;28;20121;-59
2022/12/04 01:32:13;;;;;;;51.67;22.30;;;;;;;1.82;81.21;101718.03;4998797;28;20029;-59
2022/12/04 01:34:38;;;;;;;49.85;22.20;;;;;;;1.84;81.16;101720.72;5016203;28;20034;-59
2022/12/04 01:37:03;;;;;;;53.50;22.83;;;;;;;1.85;81.17;101722.53;5016054;28;20034;-59
2022/12/04 01:39:29;;;;;;;56.13;24.17;;;;;;;1.81;81.20;101715.34;4998606;28;20369;-59
2022/12/04 01:41:54;;;;;;;50.03;22.10;;;;;;;1.82;81.37;101715.44;4998298;28;20026;-59
2022/12/04 01:44:25;;;;;;;55.15;22.77;;;;;;;1.78;81.36;101717.75;4998367;28;20038;-60
2022/12/04 01:46:52;;;;;;;60.00;24.95;;;;;;;1.75;81.27;101711.53;5015836;28;20058;-61
2022/12/04 01:49:36;;;;;;;50.85;22.80;;;;;;;1.73;81.87;101701.84;5015970;28;20029;-59
2022/12/04 01:52:12;;;;;;;51.40;22.83;;;;;;;1.72;81.49;101703.56;5015977;28;20041;-59
2022/12/04 01:54:48;;;;;;;55.28;22.63;;;;;;;1.73;81.45;101705.34;5015891;28;20434;-60
2022/12/04 01:57:17;;;;;;;56.17;24.13;;;;;;;1.69;82.01;101702.47;5015830;28;20022;-59
2022/12/04 01:59:46;;;;;;;52.22;23.38;;;;;;;1.69;81.83;101702.47;5015777;28;20045;-59
2022/12/04 02:02:15;;;;;;;54.13;22.45;;;;;;;1.77;81.87;101703.84;5015733;28;20049;-59
2022/12/04 02:04:42;;;;;;;55.38;23.48;;;;;;;1.81;81.28;101699.72;5015704;28;20441;-59
2022/12/04 02:07:08;;;;;;;52.60;23.00;;;;;;;1.81;81.05;101695.41;5015708;28;20089;-59
2022/12/04 02:09:35;;;;;;;49.20;22.85;;;;;;;1.79;80.98;101698.72;5015815;28;20030;-58
2022/12/04 02:12:23;;;;;;;56.17;23.27;;;;;;;1.80;81.64;101705.72;5015714;28;20100;-58
2022/12/04 02:15:10;;;;;;;50.67;22.45;;;;;;;1.80;81.20;101704.03;4997921;28;20486;-59
2022/12/04 02:17:50;;;;;;;52.10;23.27;;;;;;;1.80;81.39;101704.03;4997806;28;20460;-59
2022/12/04 02:20:27;;;;;;;54.35;23.08;;;;;;;1.84;81.26;101692.06;5015421;28;20112;-58
2022/12/04 02:23:13;;;;;;;51.78;21.92;;;;;;;1.82;81.35;101696.28;5015417;28;20030;-59
2022/12/04 02:26:15;;;;;;;53.00;22.95;;;;;;;1.82;81.05;101699.78;5015312;28;20036;-59
2022/12/04 02:29:01;;;;;;;52.67;21.73;;;;;;;1.83;81.27;101695.47;5015277;28;20068;-59
2022/12/04 02:31:37;;;;;;;52.38;24.10;;;;;;;1.85;81.28;101704.31;5015523;28;20042;-59
2022/12/04 02:34:20;;;;;;;49.05;22.02;;;;;;;1.85;81.03;101701.69;5015401;28;20021;-59
2022/12/04 02:36:57;;;;;;;49.53;22.27;;;;;;;1.86;80.92;101701.78;5015019;28;20026;-59
2022/12/04 02:39:33;;;;;;;53.30;23.92;;;;;;;1.87;81.06;101697.47;5015233;28;20039;-59
2022/12/04 02:42:17;;;;;;;51.95;23.75;;;;;;;1.86;80.84;101700.88;5015346;28;20092;-59
2022/12/04 02:44:52;;;;;;;53.60;23.75;;;;;;;1.79;81.10;101699.59;5014906;28;20365;-59
2022/12/04 02:47:22;;;;;;;52.80;22.85;;;;;;;1.75;80.96;101695.91;5014613;28;20499;-59
2022/12/04 02:50:11;;;;;;;54.08;23.48;;;;;;;1.75;81.15;101697.63;5015131;28;20030;-59
2022/12/04 02:52:51;;;;;;;55.05;23.70;;;;;;;1.73;81.41;101692.31;5014846;28;20057;-60
2022/12/04 02:55:30;;;;;;;56.28;24.10;;;;;;;1.71;81.67;101690.41;5014708;28;20471;-59
2022/12/04 02:58:01;;;;;;;52.15;23.15;;;;;;;1.70;81.39;101688.63;5014685;28;20043;-59
2022/12/04 03:00:29;;;;;;;54.22;24.77;;;;;;;1.67;81.11;101678.94;5014655;28;20063;-59
2022/12/04 03:02:54;;;;;;;52.60;25.02;;;;;;;1.66;82.01;101684.03;5014844;28;20037;-59
2022/12/04 03:05:26;;;;;;;53.67;23.08;;;;;;;1.68;81.23;101679.84;5014574;28;20022;-59
2022/12/04 03:07:56;;;;;;;53.08;24.80;;;;;;;1.70;81.15;101683.41;4997540;28;20030;-58
2022/12/04 03:10:31;;;;;;;54.00;23.77;;;;;;;1.67;81.62;101678.94;5014445;28;20478;-58
2022/12/04 03:13:08;;;;;;;57.38;24.42;;;;;;;1.69;81.95;101682.53;5014602;28;20392;-59
2022/12/04 03:15:41;;;;;;;53.42;24.45;;;;;;;1.67;81.32;101684.16;5013580;28;20503;-59
2022/12/04 03:18:17;;;;;;;;;;;;;;;1.69;81.24;101690.34;5014959;28;20022;-59
2022/12/04 03:20:45;;;;;;;54.10;23.58;;;;;;;1.63;81.41;101687.38;5014569;28;19913;-59
2022/12/04 03:23:21;;;;;;;53.92;23.17;;;;;;;1.67;81.38;101685.84;5014086;28;20066;-59
2022/12/04 03:25:59;;;;;;;54.75;23.85;;;;;;;1.71;81.14;101690.41;4997364;28;20475;-59
2022/12/04 03:28:32;;;;;;;53.50;24.30;;;;;;;1.72;81.61;101690.53;5014307;28;20540;-59
2022/12/04 03:31:01;;;;;;;;;;;;;;;1.77;81.50;101680.38;5014673;28;20484;-59
2022/12/04 03:33:39;;;;;;;53.63;22.17;;;;;;;1.72;81.05;101680.13;5014182;28;20007;-59
2022/12/04 03:36:30;;;;;;;54.10;23.08;;;;;;;1.75;81.15;101685.47;5013917;28;20033;-60
2022/12/04 03:39:15;;;;;;;53.42;23.80;;;;;;;1.71;81.03;101685.22;5014201;28;20053;-59
2022/12/04 03:42:06;;;;;;;54.75;24.60;;;;;;;1.67;81.32;101683.22;5013986;28;20084;-59
2022/12/04 03:44:40;;;;;;;53.97;23.42;;;;;;;1.67;81.57;101676.34;4990739;28;20101;-63
2022/12/04 03:47:14;;;;;;;53.15;23.27;;;;;;;1.68;81.98;101679.84;5013532;28;20124;-59
2022/12/04 03:49:52;;;;;;;53.00;24.13;;;;;;;1.71;81.48;101672.19;5013735;28;20029;-59
2022/12/04 03:52:35;;;;;;;57.72;25.92;;;;;;;1.69;81.58;101666.91;4996259;28;20487;-60
2022/12/04 03:55:07;;;;;;;57.55;24.33;;;;;;;1.68;81.53;101675.53;5013834;28;20030;-59
2022/12/04 03:57:39;;;;;;;55.47;23.30;;;;;;;1.70;81.69;101675.59;5013622;28;20061;-61
2022/12/04 04:00:10;;;;;;;55.67;24.77;;;;;;;1.74;81.22;101678.47;4996031;28;20053;-60
2022/12/04 04:02:40;;;;;;;55.22;23.70;;;;;;;1.73;81.37;101678.41;5013513;28;20498;-60
2022/12/04 04:05:08;;;;;;;56.58;23.90;;;;;;;1.77;81.43;101674.28;5013578;28;20034;-59
2022/12/04 04:07:42;;;;;;;51.00;23.42;;;;;;;1.78;81.78;101670.88;5013482;28;20057;-61
2022/12/04 04:10:14;;;;;;;57.42;23.88;;;;;;;1.81;81.30;101666.72;4996056;28;20041;-59
2022/12/04 04:24:12;;;;;;;56.90;24.60;;;;;;;1.81;81.40;101669.34;5013689;28;20040;-60
2022/12/04 04:26:40;;;;;;;53.55;23.08;;;;;;;1.85;80.83;101686.06;5012675;28;20100;-58
2022/12/04 04:29:05;;;;;;;58.00;25.58;;;;;;;1.85;80.62;101675.63;5013107;28;20369;-60
2022/12/04 04:31:42;;;;;;;56.40;25.42;;;;;;;1.87;80.88;101672.28;4995906;28;20029;-58
2022/12/04 04:34:16;;;;;;;56.97;25.15;;;;;;;1.84;80.99;101660.78;5013102;28;20030;-60
2022/12/04 04:37:03;;;;;;;52.00;23.73;;;;;;;1.86;80.76;101661.78;5013301;28;20026;-59
2022/12/04 04:39:48;;;;;;;54.15;23.85;;;;;;;1.84;80.80;101660.78;5013085;28;20030;-59
2022/12/04 04:42:21;;;;;;;54.10;23.60;;;;;;;1.80;80.96;101669.22;5013118;28;20041;-59
2022/12/04 04:45:30;;;;;;;54.35;23.45;;;;;;;1.81;81.16;101674.56;5012971;28;20089;-59
2022/12/04 04:48:08;;;;;;;55.60;22.88;;;;;;;1.83;80.95;101678.13;4933297;29;20122;-59
2022/12/04 04:50:34;;;;;;;57.53;24.48;;;;;;;1.82;81.08;101675.44;4933541;29;20075;-59
2022/12/04 04:53:07;;;;;;;56.75;24.17;;;;;;;1.83;81.01;101672.03;4966426;28;20201;-59
2022/12/04 04:55:34;;;;;;;56.85;24.92;;;;;;;1.82;81.41;101672.84;4993357;28;20034;-59
2022/12/04 04:58:17;;;;;;;57.25;24.40;;;;;;;1.80;81.28;101677.03;4993184;28;20030;-59
2022/12/04 05:03:30;;;;;;;56.20;26.67;;;;;;;1.71;81.40;101669.59;5037099;22;20112;-81
2022/12/04 05:05:56;;;;;;;59.58;25.00;;;;;;;1.56;81.22;101645.25;5013320;28;20069;-81
2022/12/04 05:08:21;;;;;;;56.65;26.15;;;;;;;1.75;81.69;101684.59;5013271;28;20062;-80
2022/12/04 05:10:47;;;;;;;57.65;24.30;;;;;;;1.75;82.08;101684.59;4979487;28;20088;-80
2022/12/04 05:13:13;;;;;;;54.78;24.75;;;;;;;1.76;81.39;101678.59;5013247;28;20030;-80
2022/12/04 05:15:39;;;;;;;60.20;24.70;;;;;;;1.75;81.68;101676.78;5012963;28;20030;-80
2022/12/04 05:18:05;;;;;;;54.78;25.30;;;;;;;1.46;81.90;101625.56;5013171;28;20073;-79
2022/12/04 05:20:31;;;;;;;51.75;25.10;;;;;;;1.77;81.83;101669.06;5013102;28;20034;-79
2022/12/04 05:22:57;;;;;;;52.60;24.55;;;;;;;1.80;81.19;101672.75;5013060;28;20088;-80
2022/12/04 05:25:22;;;;;;;54.33;24.42;;;;;;;1.85;81.48;101679.13;5012787;28;20030;-79
2022/12/04 05:27:48;;;;;;;57.60;25.38;;;;;;;1.80;81.35;101680.56;4995495;28;20033;-79
2022/12/04 05:30:13;;;;;;;52.03;22.45;;;;;;;1.81;81.74;101678.88;5013056;28;20095;-79
2022/12/04 05:32:39;;;;;;;53.75;25.20;;;;;;;1.78;81.51;101678.69;5013062;28;20486;-79
2022/12/04 05:35:04;;;;;;;54.63;24.48;;;;;;;1.72;81.75;101654.06;5012758;28;20057;-79
2022/12/04 05:37:30;;;;;;;55.53;25.10;;;;;;;1.79;81.72;101678.75;5012600;28;20030;-79
2022/12/04 05:39:55;;;;;;;56.20;24.55;;;;;;;1.81;81.65;101676.25;4998466;28;20041;-79
2022/12/04 05:42:21;;;;;;;53.65;24.63;;;;;;;1.73;81.59;101662.78;5016281;28;20022;-79
2022/12/04 05:44:48;;;;;;;55.67;23.98;;;;;;;1.73;81.73;101654.97;5016255;28;20060;-80
2022/12/04 05:47:13;;;;;;;57.53;24.45;;;;;;;1.75;81.34;101655.94;5016485;28;20029;-80
2022/12/04 05:49:39;;;;;;;49.63;23.40;;;;;;;1.79;81.84;101657.00;5016222;28;20057;-79
2022/12/04 05:52:05;;;;;;;54.05;24.48;;;;;;;1.76;81.46;101665.56;4999371;28;20030;-80
2022/12/04 05:54:31;;;;;;;57.78;24.27;;;;;;;1.77;81.57;101664.75;5017400;28;20473;-80
2022/12/04 05:56:56;;;;;;;53.50;24.60;;;;;;;1.81;81.90;101664.13;5017183;28;20106;-80
2022/12/04 05:59:21;;;;;;;54.25;24.88;;;;;;;1.77;81.79;101651.72;5016739;28;20518;-80
2022/12/04 06:01:47;;;;;;;55.40;26.00;;;;;;;1.85;82.12;101662.59;5016539;28;20096;-80
2022/12/04 06:04:13;;;;;;;53.75;24.20;;;;;;;1.83;82.34;101656.38;5016243;28;20546;-80
2022/12/04 06:06:38;;;;;;;59.78;26.13;;;;;;;1.75;82.20;101649.00;5016289;28;20536;-80
2022/12/04 06:09:07;;;;;;;54.50;25.00;;;;;;;1.57;82.46;101623.59;5016225;28;20104;-80
2022/12/04 06:11:35;;;;;;;61.67;25.67;;;;;;;1.62;82.38;101637.78;5016137;28;20030;-80
2022/12/04 06:14:02;;;;;;;54.28;24.27;;;;;;;1.75;82.66;101655.94;5015977;28;20026;-80
2022/12/04 06:16:35;;;;;;;56.72;24.83;;;;;;;1.66;82.46;101639.75;4998362;28;20041;-80
2022/12/04 06:19:06;;;;;;;55.30;25.88;;;;;;;1.65;82.61;101651.00;5016270;28;20029;-80
2022/12/04 06:21:34;;;;;;;56.10;24.77;;;;;;;1.64;82.68;101652.72;5015675;28;20100;-80
2022/12/04 06:24:00;;;;;;;56.45;25.00;;;;;;;1.59;82.97;101648.03;5015802;28;20040;-80
2022/12/04 06:26:25;;;;;;;54.28;23.88;;;;;;;1.68;83.09;101667.72;5015867;28;20022;-80
2022/12/04 06:28:56;;;;;;;58.28;24.60;;;;;;;1.50;82.93;101636.25;5015741;28;20414;-79
2022/12/04 06:31:23;;;;;;;52.30;23.67;;;;;;;1.66;83.27;101661.50;5015691;28;20026;-79
2022/12/04 06:33:48;;;;;;;60.58;24.70;;;;;;;1.64;82.95;101650.09;5015642;28;20030;-79
2022/12/04 06:36:17;;;;;;;54.88;23.33;;;;;;;1.67;83.52;101665.00;5015245;28;20109;-79
2022/12/04 06:38:43;;;;;;;55.58;24.23;;;;;;;1.58;82.65;101638.41;5015506;28;20025;-80
2022/12/04 06:41:11;;;;;;;58.00;24.55;;;;;;;1.65;82.88;101645.78;5015781;28;20037;-79
2022/12/04 06:43:37;;;;;;;52.17;24.30;;;;;;;1.73;82.36;101663.66;4997963;28;20073;-79
2022/12/04 06:46:14;;;;;;;56.55;24.85;;;;;;;1.64;82.79;101638.78;4997526;28;20029;-80
2022/12/04 06:48:40;;;;;;;51.28;23.67;;;;;;;1.74;82.92;101670.66;5015318;28;20117;-81
2022/12/04 06:51:10;;;;;;;55.08;24.50;;;;;;;1.63;83.36;101647.41;5014426;28;20105;-80
2022/12/04 06:53:36;;;;;;;52.83;24.83;;;;;;;1.77;82.74;101672.56;5015327;28;20018;-81
2022/12/04 06:56:04;;;;;;;52.08;23.55;;;;;;;1.83;82.51;101669.41;5015191;28;20096;-81
2022/12/04 06:58:30;;;;;;;55.60;24.55;;;;;;;1.81;82.67;101652.81;5015006;28;20041;-81
2022/12/04 07:00:56;;;;;;;53.60;25.00;;;;;;;1.86;82.58;101667.91;5014865;28;20109;-81
2022/12/04 07:03:25;;;;;;;51.03;23.65;;;;;;;1.87;82.77;101669.69;5014600;28;20046;-81
2022/12/04 07:05:50;;;;;;;52.65;24.20;;;;;;;1.91;82.72;101679.47;4997027;28;20433;-81
2022/12/04 07:08:16;;;;;;;59.35;25.10;;;;;;;1.91;82.27;101687.31;5015038;28;20112;-81
2022/12/04 07:10:42;;;;;;;50.38;23.65;;;;;;;1.94;82.24;101684.00;5014982;28;20069;-81
2022/12/04 07:13:09;;;;;;;53.83;23.73;;;;;;;1.92;82.29;101676.06;5014553;28;20101;-81
2022/12/04 07:15:36;;;;;;;52.95;23.35;;;;;;;1.96;81.92;101685.84;5014506;28;20455;-81
2022/12/04 07:18:02;;;;;;;54.47;24.17;;;;;;;1.97;82.18;101687.69;5014756;28;20034;-81
2022/12/04 07:20:28;;;;;;;49.22;22.85;;;;;;;1.92;82.45;101689.09;4997399;28;20038;-80
2022/12/04 07:22:54;;;;;;;48.03;23.38;;;;;;;1.81;82.27;101671.94;5014737;28;20030;-80
2022/12/04 07:25:19;;;;;;;49.25;23.60;;;;;;;1.92;82.57;101696.03;5014527;28;20135;-81
2022/12/04 07:27:45;;;;;;;53.78;23.67;;;;;;;1.64;82.39;101651.81;5014320;28;20117;-80
2022/12/04 07:30:11;;;;;;;53.08;23.45;;;;;;;1.71;82.13;101657.47;5014667;28;20029;-81
2022/12/04 07:32:36;;;;;;;44.70;21.85;;;;;;;1.97;82.08;101708.53;5014592;28;20414;-80
2022/12/04 07:35:03;;;;;;;47.03;22.77;;;;;;;1.88;82.67;101683.63;5014185;28;20382;-80
2022/12/04 07:37:28;;;;;;;48.80;23.95;;;;;;;2.03;82.63;101713.19;4996482;28;20033;-81
2022/12/04 07:39:53;;;;;;;49.75;22.80;;;;;;;1.75;82.22;101653.31;5014317;28;20025;-81
2022/12/04 07:42:19;;;;;;;46.83;22.80;;;;;;;2.00;82.23;101690.44;5014242;28;20073;-81
2022/12/04 07:44:45;;;;;;;49.22;23.05;;;;;;;1.98;81.78;101704.22;5014338;28;20025;-81
2022/12/04 07:47:10;;;;;;;48.03;22.33;;;;;;;1.96;82.23;101703.22;5014085;28;20026;-82
2022/12/04 07:49:37;;;;;;;50.90;23.92;;;;;;;1.74;82.46;101668.06;5014030;28;20036;-81
2022/12/04 07:52:03;;;;;;;51.97;23.00;;;;;;;1.89;82.38;101701.06;5013979;28;20026;-81
2022/12/04 07:54:28;;;;;;;44.10;21.77;;;;;;;1.92;82.47;101707.34;5013615;28;20355;-81
2022/12/04 07:56:54;;;;;;;46.33;21.77;;;;;;;1.97;82.30;101705.94;5013572;28;20441;-81
2022/12/04 07:59:19;;;;;;;48.53;23.65;;;;;;;1.91;82.59;101686.41;4995897;28;20042;-81
2022/12/04 08:01:44;;;;;;;48.30;22.50;;;;;;;2.00;82.22;101700.88;5012897;28;20050;-80
2022/12/04 08:04:10;;;;;;;45.33;22.73;;;;;;;2.05;82.78;101705.47;4996209;28;20069;-81
2022/12/04 08:06:36;;;;;;;46.13;21.40;;;;;;;1.90;82.15;101693.34;4995723;28;20089;-81
2022/12/04 08:09:03;;;;;;;41.45;19.98;;;;;;;1.95;81.90;101696.22;5013476;28;20026;-80
2022/12/04 08:11:29;;;;;;;41.75;20.63;;;;;;;1.99;81.76;101717.31;5013134;28;20492;-81
2022/12/04 08:13:56;;;;;;;43.10;21.00;;;;;;;1.81;82.01;101686.69;4995655;28;20120;-80
2022/12/04 08:16:21;;;;;;;40.95;20.50;;;;;;;1.90;81.88;101705.47;5012986;28;20037;-80
2022/12/04 08:18:47;;;;;;;42.70;20.23;;;;;;;1.94;81.74;101715.28;4995899;28;20037;-81
2022/12/04 08:21:16;;;;;;;40.83;20.38;;;;;;;1.90;82.17;101714.19;5013326;28;20443;-80
2022/12/04 08:23:42;;;;;;;43.92;20.77;;;;;;;1.96;81.99;101721.44;5013317;28;20026;-81
2022/12/04 08:26:08;;;;;;;42.72;19.40;;;;;;;1.93;81.68;101716.97;5013325;28;20034;-80
2022/12/04 08:28:34;;;;;;;39.17;19.92;;;;;;;1.96;81.88;101711.91;5013292;28;20030;-79
2022/12/04 08:31:06;;;;;;;43.95;21.42;;;;;;;2.03;81.70;101721.03;5012950;28;20776;-80
2022/12/04 08:33:31;;;;;;;37.83;18.88;;;;;;;2.03;81.65;101722.72;5013280;28;20049;-80
2022/12/04 08:35:57;;;;;;;37.40;19.63;;;;;;;2.00;81.81;101720.81;5013261;28;20474;-81
2022/12/04 08:38:23;;;;;;;43.33;20.33;;;;;;;1.99;81.85;101719.94;5013124;28;20026;-81
2022/12/04 08:40:48;;;;;;;40.03;19.60;;;;;;;1.93;81.73;101703.94;4995369;28;20129;-82
2022/12/04 08:43:14;;;;;;;40.15;20.48;;;;;;;1.89;81.90;101696.75;5013154;28;20465;-81
2022/12/04 08:45:39;;;;;;;40.67;19.58;;;;;;;1.89;82.11;101690.66;4995560;28;20034;-81
2022/12/04 08:48:07;;;;;;;40.58;18.88;;;;;;;2.06;81.87;101717.72;5013147;28;20415;-81
2022/12/04 08:50:32;;;;;;;34.38;17.85;;;;;;;1.93;81.34;101693.53;5012958;28;20467;-81
2022/12/04 08:52:57;;;;;;;36.95;18.40;;;;;;;1.87;81.29;101681.81;4995570;28;20038;-81
2022/12/04 08:55:23;;;;;;;38.03;19.50;;;;;;;2.10;81.77;101706.63;4995404;28;20300;-81
2022/12/04 08:57:51;;;;;;;36.95;18.58;;;;;;;2.12;81.82;101703.31;4995211;28;20029;-81
2022/12/04 09:00:17;;;;;;;38.50;20.23;;;;;;;2.04;81.69;101688.91;4995285;28;20356;-81
2022/12/04 09:02:42;;;;;;;38.83;20.10;;;;;;;1.97;81.80;101664.22;4995191;28;20100;-81
2022/12/04 09:05:07;;;;;;;37.50;19.10;;;;;;;2.17;81.56;101699.25;5012927;28;20041;-81
2022/12/04 09:07:33;;;;;;;35.55;18.20;;;;;;;2.10;80.90;101683.16;4995169;28;20117;-81
2022/12/04 09:09:58;;;;;;;34.28;18.10;;;;;;;2.14;81.16;101685.13;5012815;28;20113;-82
2022/12/04 09:12:23;;;;;;;39.67;18.80;;;;;;;2.23;81.36;101706.56;5012885;28;20366;-82
2022/12/04 09:14:49;;;;;;;35.45;19.38;;;;;;;2.10;81.31;101685.75;4998315;28;20111;-82
2022/12/04 09:17:14;;;;;;;39.28;18.02;;;;;;;2.18;81.27;101703.66;4998719;28;20036;-82
2022/12/04 09:19:39;;;;;;;36.47;18.80;;;;;;;2.27;81.45;101716.34;5016632;28;20029;-81
2022/12/04 09:22:05;;;;;;;36.30;19.42;;;;;;;2.19;81.12;101692.44;5016197;28;20359;-82
2022/12/04 09:24:30;;;;;;;33.55;17.25;;;;;;;2.33;80.63;101710.59;4998851;28;20425;-79
2022/12/04 09:26:55;;;;;;;36.00;17.80;;;;;;;2.19;80.63;101687.22;5016179;28;20026;-79
2022/12/04 09:29:21;;;;;;;34.78;17.33;;;;;;;2.36;80.17;101727.31;4998724;28;20037;-81
2022/12/04 09:31:46;;;;;;;37.60;18.20;;;;;;;2.32;80.36;101706.19;5016235;28;20030;-80
2022/12/04 09:34:12;;;;;;;35.67;17.33;;;;;;;2.37;80.60;101707.34;5015992;28;20034;-80
2022/12/04 09:36:37;;;;;;;37.08;18.40;;;;;;;2.46;80.54;101719.19;5015871;28;20038;-79
2022/12/04 09:39:03;;;;;;;32.78;16.77;;;;;;;2.44;80.01;101719.91;5016011;28;20470;-80
2022/12/04 09:42:05;;;;;;;32.25;15.43;;;;;;;2.50;80.15;101721.16;4998552;28;20030;-80
2022/12/04 09:44:44;;;;;;;29.95;15.60;;;;;;;2.40;79.33;101718.84;5016027;28;20037;-80
2022/12/04 09:47:22;;;;;;;32.13;16.05;;;;;;;2.36;79.12;101722.09;5016071;28;20068;-81
2022/12/04 09:49:57;;;;;;;32.22;15.18;;;;;;;2.34;79.29;101723.69;5016145;28;20116;-80
2022/12/04 09:52:34;;;;;;;34.45;17.77;;;;;;;2.24;79.37;101724.00;5015649;28;20021;-80
2022/12/04 09:55:04;;;;;;;30.70;14.52;;;;;;;1.94;79.42;101686.59;5015551;28;20532;-81
2022/12/04 09:57:41;;;;;;;29.83;14.27;;;;;;;2.10;79.82;101717.97;4998075;28;20113;-81
2022/12/04 10:00:12;;;;;;;30.63;15.57;;;;;;;2.07;79.96;101727.31;5015677;28;20017;-81
2022/12/04 10:02:40;;;;;;;29.80;15.23;;;;;;;2.02;79.45;101723.56;5015241;28;20057;-81
2022/12/04 10:05:20;;;;;;;28.10;14.07;;;;;;;1.97;79.71;101733.66;4998136;28;20025;-80
2022/12/04 10:07:55;;;;;;;27.70;14.20;;;;;;;2.04;79.84;101729.72;5015638;28;20026;-80
2022/12/04 10:10:38;;;;;;;27.17;14.20;;;;;;;2.04;79.58;101728.03;4998018;28;20378;-80
2022/12/04 10:13:08;;;;;;;28.60;14.55;;;;;;;2.05;79.74;101722.00;5015526;28;20117;-82
2022/12/04 10:16:00;;;;;;;33.13;15.43;;;;;;;2.05;79.30;101728.91;5015041;28;20370;-82
2022/12/04 10:18:46;;;;;;;29.35;15.57;;;;;;;2.01;79.97;101725.22;4997118;28;20100;-82
2022/12/04 10:21:35;;;;;;;27.40;13.85;;;;;;;2.02;80.15;101721.84;4998078;28;20064;-81
2022/12/04 10:24:27;;;;;;;29.40;14.73;;;;;;;1.90;80.14;101689.81;5015248;28;20030;-82
2022/12/04 10:26:59;;;;;;;29.80;15.05;;;;;;;1.92;79.90;101714.25;4997951;28;20105;-89
2022/12/04 10:29:31;;;;;;;32.13;15.38;;;;;;;1.80;80.25;101695.28;4997727;28;20018;-85
2022/12/04 10:32:15;;;;;;;31.85;15.02;;;;;;;1.81;79.95;101700.59;4997732;28;20022;-80
2022/12/04 10:34:42;;;;;;;28.60;14.77;;;;;;;1.98;80.54;101722.47;5015314;28;20127;-82
2022/12/04 10:37:12;;;;;;;29.30;14.48;;;;;;;1.96;80.65;101711.91;5014866;28;20030;-81
2022/12/04 10:40:15;;;;;;;29.85;14.63;;;;;;;2.04;80.34;101715.00;4997496;28;20026;-80
2022/12/04 10:43:03;;;;;;;31.23;15.98;;;;;;;2.06;80.21;101723.81;4997569;28;20025;-82
2022/12/04 10:45:28;;;;;;;28.17;13.85;;;;;;;2.13;80.51;101732.88;5014738;28;20196;-81
2022/12/04 10:47:54;;;;;;;26.85;14.10;;;;;;;2.16;79.64;101726.13;5014429;28;20116;-81
2022/12/04 10:50:22;;;;;;;27.33;14.48;;;;;;;2.00;79.60;101705.19;5014453;28;20029;-80
2022/12/04 10:52:48;;;;;;;28.67;15.02;;;;;;;2.13;80.16;101712.91;4997042;28;20096;-81
2022/12/04 10:55:14;;;;;;;30.02;14.45;;;;;;;2.11;79.85;101696.31;4997217;28;20034;-80
2022/12/04 10:57:39;;;;;;;27.15;14.50;;;;;;;2.26;79.75;101715.44;5014745;28;20036;-80
2022/12/04 11:00:25;;;;;;;28.83;13.88;;;;;;;2.21;80.42;101695.13;5032159;28;20021;-80
2022/12/04 11:02:53;;;;;;;29.05;14.25;;;;;;;2.11;79.65;101675.44;5034371;28;20105;-81
2022/12/04 11:05:44;;;;;;;29.25;14.38;;;;;;;2.25;79.89;101699.72;5034364;28;20030;-81
2022/12/04 11:08:22;;;;;;;29.05;14.30;;;;;;;2.11;79.51;101684.97;5033346;28;20032;-82
2022/12/04 11:11:01;;;;;;;28.85;15.00;;;;;;;2.09;80.00;101682.25;5033648;28;20450;-81
2022/12/04 11:13:27;;;;;;;34.20;16.15;;;;;;;2.17;79.88;101693.16;5034523;28;20032;-82
2022/12/04 11:15:54;;;;;;;28.95;14.77;;;;;;;2.16;80.00;101693.97;5033979;28;20026;-82
2022/12/04 11:18:44;;;;;;;30.98;15.18;;;;;;;2.00;80.02;101682.63;5016276;28;20059;-81
2022/12/04 11:21:24;;;;;;;27.30;14.77;;;;;;;2.09;80.18;101687.47;5034211;28;20111;-82
2022/12/04 11:23:50;;;;;;;31.00;15.63;;;;;;;2.05;79.89;101690.72;5033875;28;20026;-81
2022/12/04 11:26:27;;;;;;;28.33;14.05;;;;;;;1.74;80.39;101644.63;5015982;28;20195;-82
2022/12/04 11:28:54;;;;;;;27.33;14.95;;;;;;;1.89;80.50;101660.28;5033766;28;20041;-82
2022/12/04 11:31:21;;;;;;;27.33;15.43;;;;;;;1.94;80.32;101661.44;5033749;28;20029;-81
2022/12/04 11:33:48;;;;;;;29.42;14.90;;;;;;;2.05;81.02;101677.69;5033953;28;20032;-81
2022/12/04 11:36:26;;;;;;;28.42;14.77;;;;;;;2.02;79.86;101680.13;5015762;28;20044;-82
2022/12/04 11:39:01;;;;;;;27.58;14.40;;;;;;;1.90;80.58;101661.16;5033888;28;20028;-82
2022/12/04 11:41:29;;;;;;;24.10;13.50;;;;;;;1.92;79.96;101654.31;5033555;28;20018;-82
2022/12/04 11:43:55;;;;;;;28.02;13.75;;;;;;;1.99;80.16;101670.41;5033651;28;20129;-81
2022/12/04 11:46:24;;;;;;;27.58;14.68;;;;;;;1.95;80.17;101664.94;5033445;28;20113;-81